sensor_id;sensor_type;location;lat;lon;timestamp;pressure;altitude;pressure_sealevel;temperature;humidity
70250;BME280;57644;48.416;-123.374;2022-11-25T00:01:44;102208.27;;;2.28;76.87
70250;BME280;57644;48.416;-123.374;2022-11-25T00:04:14;102200.04;;;2.24;77.16
70250;BME280;57644;48.416;-123.374;2022-11-25T00:06:46;102193.62;;;2.19;77.36
70250;BME280;57644;48.416;-123.374;2022-11-25T00:19:18;102185.38;;;2.03;77.73
70250;BME280;57644;48.416;-123.374;2022-11-25T00:29:20;102187.91;;;1.96;78.13
70250;BME280;57644;48.416;-123.374;2022-11-25T00:31:50;102191.51;;;1.95;78.13
70250;BME280;57644;48.416;-123.374;2022-11-25T00:36:50;102188.55;;;1.65;79.33
70250;BME280;57644;48.416;-123.374;2022-11-25T00:39:21;102180.56;;;1.41;81.09
70250;BME280;57644;48.416;-123.374;2022-11-25T00:41:51;102177.74;;;1.39;80.64
70250;BME280;57644;48.416;-123.374;2022-11-25T00:44:22;102174.31;;;1.30;80.85
70250;BME280;57644;48.416;-123.374;2022-11-25T00:46:52;102182.69;;;1.27;81.22
70250;BME280;57644;48.416;-123.374;2022-11-25T00:49:23;102192.91;;;1.29;81.17
70250;BME280;57644;48.416;-123.374;2022-11-25T00:51:53;102194.33;;;1.25;82.28
70250;BME280;57644;48.416;-123.374;2022-11-25T01:06:55;102198.57;;;1.35;81.72
70250;BME280;57644;48.416;-123.374;2022-11-25T01:09:26;102199.21;;;1.27;82.24
70250;BME280;57644;48.416;-123.374;2022-11-25T01:11:56;102192.36;;;1.37;81.25
70250;BME280;57644;48.416;-123.374;2022-11-25T01:14:26;102187.88;;;1.26;81.72
70250;BME280;57644;48.416;-123.374;2022-11-25T01:16:57;102188.84;;;1.30;80.96
70250;BME280;57644;48.416;-123.374;2022-11-25T01:19:27;102190.43;;;1.29;81.06
70250;BME280;57644;48.416;-123.374;2022-11-25T01:21:58;102192.17;;;1.30;81.18
70250;BME280;57644;48.416;-123.374;2022-11-25T01:24:28;102190.26;;;1.31;80.92
70250;BME280;57644;48.416;-123.374;2022-11-25T01:26:59;102190.65;;;1.31;80.83
70250;BME280;57644;48.416;-123.374;2022-11-25T01:29:29;102200.87;;;1.32;80.97
70250;BME280;57644;48.416;-123.374;2022-11-25T01:32:00;102199.79;;;1.33;80.75
70250;BME280;57644;48.416;-123.374;2022-11-25T01:34:30;102197.53;;;1.31;80.86
70250;BME280;57644;48.416;-123.374;2022-11-25T01:37:01;102186.51;;;1.08;82.17
70250;BME280;57644;48.416;-123.374;2022-11-25T01:39:31;102185.38;;;1.01;82.45
70250;BME280;57644;48.416;-123.374;2022-11-25T01:42:02;102184.53;;;0.95;83.18
70250;BME280;57644;48.416;-123.374;2022-11-25T01:44:34;102181.76;;;0.95;82.71
70250;BME280;57644;48.416;-123.374;2022-11-25T01:47:05;102177.18;;;0.99;82.88
70250;BME280;57644;48.416;-123.374;2022-11-25T01:49:36;102180.25;;;1.07;82.44
70250;BME280;57644;48.416;-123.374;2022-11-25T01:52:10;102180.42;;;1.05;82.70
70250;BME280;57644;48.416;-123.374;2022-11-25T01:54:36;102179.33;;;0.89;83.47
70250;BME280;57644;48.416;-123.374;2022-11-25T01:59:38;102186.20;;;0.98;83.31
70250;BME280;57644;48.416;-123.374;2022-11-25T02:02:10;102183.53;;;1.01;82.85
70250;BME280;57644;48.416;-123.374;2022-11-25T02:04:38;102187.72;;;0.87;83.41
70250;BME280;57644;48.416;-123.374;2022-11-25T02:07:11;102187.48;;;0.91;83.22
70250;BME280;57644;48.416;-123.374;2022-11-25T02:09:40;102188.09;;;0.90;83.21
70250;BME280;57644;48.416;-123.374;2022-11-25T02:12:07;102194.21;;;0.87;83.30
70250;BME280;57644;48.416;-123.374;2022-11-25T02:14:38;102194.04;;;0.94;82.94
70250;BME280;57644;48.416;-123.374;2022-11-25T02:19:50;102179.36;;;0.90;83.71
70250;BME280;57644;48.416;-123.374;2022-11-25T02:22:17;102171.61;;;0.60;84.13
70250;BME280;57644;48.416;-123.374;2022-11-25T02:24:43;102171.60;;;0.69;83.83
70250;BME280;57644;48.416;-123.374;2022-11-25T02:27:10;102170.65;;;0.69;84.06
70250;BME280;57644;48.416;-123.374;2022-11-25T02:29:41;102166.92;;;0.58;84.59
70250;BME280;57644;48.416;-123.374;2022-11-25T02:32:11;102166.15;;;0.67;84.06
70250;BME280;57644;48.416;-123.374;2022-11-25T02:54:46;102165.01;;;0.60;84.15
70250;BME280;57644;48.416;-123.374;2022-11-25T03:17:30;102159.46;;;-0.03;86.98
70250;BME280;57644;48.416;-123.374;2022-11-25T03:19:51;102156.14;;;0.15;86.01
70250;BME280;57644;48.416;-123.374;2022-11-25T03:22:20;102147.86;;;-0.11;87.01
70250;BME280;57644;48.416;-123.374;2022-11-25T03:24:50;102151.66;;;0.02;86.23
70250;BME280;57644;48.416;-123.374;2022-11-25T03:27:21;102150.17;;;-0.12;87.34
70250;BME280;57644;48.416;-123.374;2022-11-25T03:29:52;102150.07;;;0.02;86.87
70250;BME280;57644;48.416;-123.374;2022-11-25T03:32:22;102149.71;;;0.10;86.68
70250;BME280;57644;48.416;-123.374;2022-11-25T04:07:42;102144.58;;;0.82;84.93
70250;BME280;57644;48.416;-123.374;2022-11-25T04:17:34;102139.55;;;0.92;85.04
70250;BME280;57644;48.416;-123.374;2022-11-25T04:20:03;102137.39;;;0.88;85.32
70250;BME280;57644;48.416;-123.374;2022-11-25T04:22:36;102140.23;;;1.04;84.68
70250;BME280;57644;48.416;-123.374;2022-11-25T04:27:46;102143.93;;;1.13;84.15
70250;BME280;57644;48.416;-123.374;2022-11-25T04:30:12;102141.57;;;1.09;84.54
70250;BME280;57644;48.416;-123.374;2022-11-25T04:45:13;102163.92;;;1.41;83.76
70250;BME280;57644;48.416;-123.374;2022-11-25T04:47:35;102163.86;;;1.49;83.48
70250;BME280;57644;48.416;-123.374;2022-11-25T04:50:06;102153.98;;;1.48;83.67
70250;BME280;57644;48.416;-123.374;2022-11-25T04:52:34;102149.61;;;1.48;83.59
70250;BME280;57644;48.416;-123.374;2022-11-25T04:55:05;102150.16;;;1.01;85.69
70250;BME280;57644;48.416;-123.374;2022-11-25T04:57:35;102143.00;;;0.99;85.99
70250;BME280;57644;48.416;-123.374;2022-11-25T05:00:07;102149.25;;;1.12;85.37
70250;BME280;57644;48.416;-123.374;2022-11-25T05:02:36;102132.08;;;1.01;86.39
70250;BME280;57644;48.416;-123.374;2022-11-25T05:15:21;102118.55;;;1.04;86.73
70250;BME280;57644;48.416;-123.374;2022-11-25T05:20:23;102113.03;;;1.23;85.65
70250;BME280;57644;48.416;-123.374;2022-11-25T05:22:51;102097.25;;;1.05;86.68
70250;BME280;57644;48.416;-123.374;2022-11-25T05:25:26;102100.42;;;1.04;86.49
70250;BME280;57644;48.416;-123.374;2022-11-25T05:30:24;102104.86;;;1.29;85.18
70250;BME280;57644;48.416;-123.374;2022-11-25T05:35:27;102095.08;;;1.39;84.61
70250;BME280;57644;48.416;-123.374;2022-11-25T05:37:51;102092.03;;;1.35;84.68
70250;BME280;57644;48.416;-123.374;2022-11-25T05:47:48;102100.52;;;1.43;84.37
70250;BME280;57644;48.416;-123.374;2022-11-25T05:50:16;102101.18;;;1.45;84.38
70250;BME280;57644;48.416;-123.374;2022-11-25T05:52:47;102095.18;;;1.09;86.36
70250;BME280;57644;48.416;-123.374;2022-11-25T05:55:17;102100.05;;;1.21;85.67
70250;BME280;57644;48.416;-123.374;2022-11-25T05:57:47;102092.85;;;1.24;85.74
70250;BME280;57644;48.416;-123.374;2022-11-25T06:00:18;102092.04;;;1.35;85.09
70250;BME280;57644;48.416;-123.374;2022-11-25T06:02:50;102081.25;;;1.37;85.22
70250;BME280;57644;48.416;-123.374;2022-11-25T06:05:19;102076.57;;;1.19;86.86
70250;BME280;57644;48.416;-123.374;2022-11-25T06:07:52;102075.59;;;1.17;87.09
70250;BME280;57644;48.416;-123.374;2022-11-25T06:10:21;102079.54;;;1.16;87.35
70250;BME280;57644;48.416;-123.374;2022-11-25T06:12:50;102074.99;;;1.20;87.34
70250;BME280;57644;48.416;-123.374;2022-11-25T06:15:22;102071.04;;;0.97;89.01
70250;BME280;57644;48.416;-123.374;2022-11-25T06:17:52;102072.77;;;0.91;89.16
70250;BME280;57644;48.416;-123.374;2022-11-25T06:20:26;102062.60;;;1.06;88.44
70250;BME280;57644;48.416;-123.374;2022-11-25T06:27:54;102080.62;;;1.29;87.34
70250;BME280;57644;48.416;-123.374;2022-11-25T06:30:32;102081.07;;;1.19;87.90
70250;BME280;57644;48.416;-123.374;2022-11-25T06:32:55;102078.35;;;1.24;87.15
70250;BME280;57644;48.416;-123.374;2022-11-25T06:35:26;102086.20;;;1.29;86.64
70250;BME280;57644;48.416;-123.374;2022-11-25T06:38:00;102083.62;;;1.33;86.34
70250;BME280;57644;48.416;-123.374;2022-11-25T06:40:26;102086.47;;;1.28;86.11
70250;BME280;57644;48.416;-123.374;2022-11-25T06:42:56;102081.45;;;1.28;85.96
70250;BME280;57644;48.416;-123.374;2022-11-25T06:45:31;102074.19;;;1.30;85.77
70250;BME280;57644;48.416;-123.374;2022-11-25T06:50:32;102078.64;;;1.09;86.47
70250;BME280;57644;48.416;-123.374;2022-11-25T06:53:06;102066.34;;;1.24;85.81
70250;BME280;57644;48.416;-123.374;2022-11-25T06:55:29;102062.43;;;1.25;85.68
70250;BME280;57644;48.416;-123.374;2022-11-25T06:58:01;102073.06;;;1.16;86.03
70250;BME280;57644;48.416;-123.374;2022-11-25T07:00:29;102070.10;;;0.98;86.58
70250;BME280;57644;48.416;-123.374;2022-11-25T07:03:11;102075.25;;;1.10;86.28
70250;BME280;57644;48.416;-123.374;2022-11-25T07:05:29;102069.51;;;1.03;86.29
70250;BME280;57644;48.416;-123.374;2022-11-25T07:08:01;102060.16;;;1.11;86.15
70250;BME280;57644;48.416;-123.374;2022-11-25T07:10:34;102061.13;;;0.91;86.98
70250;BME280;57644;48.416;-123.374;2022-11-25T07:13:01;102073.07;;;0.90;87.13
70250;BME280;57644;48.416;-123.374;2022-11-25T07:15:33;102064.51;;;1.03;86.12
70250;BME280;57644;48.416;-123.374;2022-11-25T07:18:06;102073.40;;;1.19;85.61
70250;BME280;57644;48.416;-123.374;2022-11-25T07:23:04;102067.62;;;1.19;85.05
70250;BME280;57644;48.416;-123.374;2022-11-25T07:25:34;102063.13;;;1.18;84.93
70250;BME280;57644;48.416;-123.374;2022-11-25T07:28:04;102064.09;;;1.36;84.49
70250;BME280;57644;48.416;-123.374;2022-11-25T07:30:43;102064.50;;;1.42;84.23
70250;BME280;57644;48.416;-123.374;2022-11-25T07:33:04;102065.22;;;1.47;83.95
70250;BME280;57644;48.416;-123.374;2022-11-25T07:35:35;102060.69;;;1.39;83.67
70250;BME280;57644;48.416;-123.374;2022-11-25T07:40:40;102057.95;;;1.43;83.88
70250;BME280;57644;48.416;-123.374;2022-11-25T07:43:07;102068.73;;;1.49;83.54
70250;BME280;57644;48.416;-123.374;2022-11-25T07:45:40;102069.78;;;1.41;83.69
70250;BME280;57644;48.416;-123.374;2022-11-25T07:48:07;102066.33;;;1.48;83.70
70250;BME280;57644;48.416;-123.374;2022-11-25T07:50:39;102068.00;;;1.36;84.01
70250;BME280;57644;48.416;-123.374;2022-11-25T07:53:14;102048.49;;;0.95;85.54
70250;BME280;57644;48.416;-123.374;2022-11-25T07:58:09;102042.15;;;1.09;86.03
70250;BME280;57644;48.416;-123.374;2022-11-25T08:00:43;102031.00;;;1.24;85.57
70250;BME280;57644;48.416;-123.374;2022-11-25T08:05:41;102042.67;;;1.03;86.82
70250;BME280;57644;48.416;-123.374;2022-11-25T08:08:13;102044.62;;;1.20;86.07
70250;BME280;57644;48.416;-123.374;2022-11-25T08:15:52;102039.97;;;1.39;85.77
70250;BME280;57644;48.416;-123.374;2022-11-25T08:18:26;102044.49;;;1.47;85.75
70250;BME280;57644;48.416;-123.374;2022-11-25T08:20:57;102030.42;;;1.57;85.35
70250;BME280;57644;48.416;-123.374;2022-11-25T08:25:46;102007.68;;;1.50;85.81
70250;BME280;57644;48.416;-123.374;2022-11-25T08:28:15;102013.84;;;1.42;86.28
70250;BME280;57644;48.416;-123.374;2022-11-25T08:33:23;102013.36;;;1.60;85.98
70250;BME280;57644;48.416;-123.374;2022-11-25T08:35:52;102009.11;;;1.73;85.49
70250;BME280;57644;48.416;-123.374;2022-11-25T08:38:29;102004.21;;;1.73;85.43
70250;BME280;57644;48.416;-123.374;2022-11-25T08:43:27;102007.50;;;1.83;84.96
70250;BME280;57644;48.416;-123.374;2022-11-25T08:45:49;102010.74;;;1.86;84.77
70250;BME280;57644;48.416;-123.374;2022-11-25T08:48:20;102006.39;;;1.84;84.95
70250;BME280;57644;48.416;-123.374;2022-11-25T08:50:52;102002.46;;;1.78;85.30
70250;BME280;57644;48.416;-123.374;2022-11-25T08:53:21;101999.92;;;1.77;85.38
70250;BME280;57644;48.416;-123.374;2022-11-25T08:55:51;101993.03;;;1.75;85.60
70250;BME280;57644;48.416;-123.374;2022-11-25T08:58:28;101999.26;;;1.73;85.76
70250;BME280;57644;48.416;-123.374;2022-11-25T09:00:51;101990.80;;;1.73;85.89
70250;BME280;57644;48.416;-123.374;2022-11-25T09:03:23;101984.40;;;1.74;86.09
70250;BME280;57644;48.416;-123.374;2022-11-25T09:05:53;101988.91;;;1.63;86.61
70250;BME280;57644;48.416;-123.374;2022-11-25T09:08:23;101982.75;;;1.65;86.68
70250;BME280;57644;48.416;-123.374;2022-11-25T09:10:53;101975.60;;;1.65;86.70
70250;BME280;57644;48.416;-123.374;2022-11-25T09:13:23;101981.28;;;1.58;87.16
70250;BME280;57644;48.416;-123.374;2022-11-25T09:16:05;101976.76;;;1.59;87.27
70250;BME280;57644;48.416;-123.374;2022-11-25T09:18:25;101979.60;;;1.30;88.73
70250;BME280;57644;48.416;-123.374;2022-11-25T09:20:55;101985.00;;;1.26;88.76
70250;BME280;57644;48.416;-123.374;2022-11-25T09:23:25;101989.11;;;1.31;88.68
70250;BME280;57644;48.416;-123.374;2022-11-25T09:25:57;101986.58;;;1.22;89.50
70250;BME280;57644;48.416;-123.374;2022-11-25T09:28:26;101985.30;;;1.36;88.66
70250;BME280;57644;48.416;-123.374;2022-11-25T09:30:57;101994.18;;;1.41;88.43
70250;BME280;57644;48.416;-123.374;2022-11-25T09:36:00;101998.53;;;1.47;88.43
70250;BME280;57644;48.416;-123.374;2022-11-25T09:38:27;101981.84;;;1.34;89.34
70250;BME280;57644;48.416;-123.374;2022-11-25T09:41:02;101977.28;;;1.03;90.57
70250;BME280;57644;48.416;-123.374;2022-11-25T09:43:37;101975.57;;;1.05;90.47
70250;BME280;57644;48.416;-123.374;2022-11-25T09:46:05;101968.11;;;0.99;90.69
70250;BME280;57644;48.416;-123.374;2022-11-25T09:48:39;101961.70;;;0.89;91.30
70250;BME280;57644;48.416;-123.374;2022-11-25T09:51:08;101964.67;;;0.77;91.97
70250;BME280;57644;48.416;-123.374;2022-11-25T09:53:40;101951.65;;;0.63;92.52
70250;BME280;57644;48.416;-123.374;2022-11-25T09:56:03;101949.92;;;0.76;92.27
70250;BME280;57644;48.416;-123.374;2022-11-25T09:58:34;101943.97;;;0.50;94.13
70250;BME280;57644;48.416;-123.374;2022-11-25T10:01:03;101941.74;;;0.72;93.46
70250;BME280;57644;48.416;-123.374;2022-11-25T10:03:38;101941.72;;;0.51;94.26
70250;BME280;57644;48.416;-123.374;2022-11-25T10:06:05;101948.82;;;0.80;93.36
70250;BME280;57644;48.416;-123.374;2022-11-25T10:08:36;101947.90;;;0.73;93.83
70250;BME280;57644;48.416;-123.374;2022-11-25T10:11:06;101968.61;;;0.92;93.08
70250;BME280;57644;48.416;-123.374;2022-11-25T10:13:40;101969.20;;;1.14;91.92
70250;BME280;57644;48.416;-123.374;2022-11-25T10:16:07;101970.75;;;1.20;91.79
70250;BME280;57644;48.416;-123.374;2022-11-25T10:18:39;101962.66;;;1.15;91.71
70250;BME280;57644;48.416;-123.374;2022-11-25T10:21:04;101954.59;;;1.03;92.36
70250;BME280;57644;48.416;-123.374;2022-11-25T10:23:35;101969.59;;;1.25;91.51
70250;BME280;57644;48.416;-123.374;2022-11-25T10:26:12;101968.90;;;1.17;91.88
70250;BME280;57644;48.416;-123.374;2022-11-25T10:28:35;101965.93;;;1.15;91.87
70250;BME280;57644;48.416;-123.374;2022-11-25T10:31:10;101966.93;;;0.31;95.42
70250;BME280;57644;48.416;-123.374;2022-11-25T10:33:40;101969.67;;;-0.58;99.96
70250;BME280;57644;48.416;-123.374;2022-11-25T10:36:10;101972.73;;;-0.22;99.54
70250;BME280;57644;48.416;-123.374;2022-11-25T10:38:43;101957.18;;;-0.66;100.00
70250;BME280;57644;48.416;-123.374;2022-11-25T10:41:08;101959.69;;;-0.11;99.28
70250;BME280;57644;48.416;-123.374;2022-11-25T10:43:46;101951.58;;;0.26;97.17
70250;BME280;57644;48.416;-123.374;2022-11-25T10:46:15;101945.85;;;0.36;95.67
70250;BME280;57644;48.416;-123.374;2022-11-25T10:48:51;101943.76;;;0.21;96.14
70250;BME280;57644;48.416;-123.374;2022-11-25T10:51:19;101938.85;;;-0.76;100.00
70250;BME280;57644;48.416;-123.374;2022-11-25T10:53:40;101946.05;;;-0.02;97.91
70250;BME280;57644;48.416;-123.374;2022-11-25T10:56:15;101940.60;;;0.32;96.12
70250;BME280;57644;48.416;-123.374;2022-11-25T10:58:41;101943.21;;;-0.03;97.37
70250;BME280;57644;48.416;-123.374;2022-11-25T11:01:16;101950.87;;;0.26;95.70
70250;BME280;57644;48.416;-123.374;2022-11-25T11:03:51;101960.04;;;-0.24;97.06
70250;BME280;57644;48.416;-123.374;2022-11-25T11:08:42;101965.71;;;0.06;96.23
70250;BME280;57644;48.416;-123.374;2022-11-25T11:11:18;101955.35;;;-0.21;97.78
70250;BME280;57644;48.416;-123.374;2022-11-25T11:13:44;101945.08;;;0.27;95.10
70250;BME280;57644;48.416;-123.374;2022-11-25T11:16:21;101959.69;;;0.56;93.89
70250;BME280;57644;48.416;-123.374;2022-11-25T11:18:46;101963.87;;;0.39;93.86
70250;BME280;57644;48.416;-123.374;2022-11-25T11:21:22;101961.25;;;0.63;93.42
70250;BME280;57644;48.416;-123.374;2022-11-25T11:23:49;101944.14;;;0.75;92.83
70250;BME280;57644;48.416;-123.374;2022-11-25T11:26:23;101953.02;;;0.59;93.84
70250;BME280;57644;48.416;-123.374;2022-11-25T11:28:45;101950.00;;;0.86;92.72
70250;BME280;57644;48.416;-123.374;2022-11-25T11:31:18;101967.20;;;0.99;92.19
70250;BME280;57644;48.416;-123.374;2022-11-25T11:33:54;101956.51;;;1.17;91.21
70250;BME280;57644;48.416;-123.374;2022-11-25T11:36:25;101947.02;;;1.27;91.27
70250;BME280;57644;48.416;-123.374;2022-11-25T11:38:53;101957.39;;;1.35;91.55
70250;BME280;57644;48.416;-123.374;2022-11-25T11:41:25;101945.83;;;1.42;91.71
70250;BME280;57644;48.416;-123.374;2022-11-25T11:43:57;101940.83;;;1.42;91.68
70250;BME280;57644;48.416;-123.374;2022-11-25T11:46:28;101944.53;;;1.54;91.12
70250;BME280;57644;48.416;-123.374;2022-11-25T11:48:56;101932.81;;;1.46;92.06
70250;BME280;57644;48.416;-123.374;2022-11-25T11:51:26;101935.77;;;1.58;91.91
70250;BME280;57644;48.416;-123.374;2022-11-25T11:53:56;101940.28;;;1.71;91.43
70250;BME280;57644;48.416;-123.374;2022-11-25T11:56:25;101929.63;;;1.75;90.73
70250;BME280;57644;48.416;-123.374;2022-11-25T11:59:00;101939.98;;;1.77;90.47
70250;BME280;57644;48.416;-123.374;2022-11-25T12:01:31;101937.25;;;1.74;90.66
70250;BME280;57644;48.416;-123.374;2022-11-25T12:03:57;101943.53;;;1.35;92.61
70250;BME280;57644;48.416;-123.374;2022-11-25T12:06:23;101941.88;;;1.36;92.43
70250;BME280;57644;48.416;-123.374;2022-11-25T12:08:55;101942.19;;;1.41;92.16
70250;BME280;57644;48.416;-123.374;2022-11-25T12:13:58;101931.05;;;1.17;94.49
70250;BME280;57644;48.416;-123.374;2022-11-25T12:16:26;101933.42;;;1.22;94.61
70250;BME280;57644;48.416;-123.374;2022-11-25T12:19:00;101929.28;;;0.92;96.20
70250;BME280;57644;48.416;-123.374;2022-11-25T12:21:36;101926.33;;;0.84;96.29
70250;BME280;57644;48.416;-123.374;2022-11-25T12:24:00;101921.93;;;0.70;96.68
70250;BME280;57644;48.416;-123.374;2022-11-25T12:26:32;101918.56;;;0.61;96.67
70250;BME280;57644;48.416;-123.374;2022-11-25T12:29:01;101911.04;;;0.61;96.26
70250;BME280;57644;48.416;-123.374;2022-11-25T12:31:28;101905.25;;;0.60;95.95
70250;BME280;57644;48.416;-123.374;2022-11-25T12:34:02;101897.57;;;0.59;96.09
70250;BME280;57644;48.416;-123.374;2022-11-25T12:36:33;101905.30;;;0.63;95.65
70250;BME280;57644;48.416;-123.374;2022-11-25T12:39:03;101905.81;;;0.48;96.35
70250;BME280;57644;48.416;-123.374;2022-11-25T12:41:36;101900.29;;;0.49;96.45
70250;BME280;57644;48.416;-123.374;2022-11-25T12:44:03;101895.07;;;0.51;97.09
70250;BME280;57644;48.416;-123.374;2022-11-25T12:46:35;101892.23;;;0.59;97.22
70250;BME280;57644;48.416;-123.374;2022-11-25T12:48:59;101891.48;;;0.69;97.13
70250;BME280;57644;48.416;-123.374;2022-11-25T12:51:40;101881.70;;;0.65;98.35
70250;BME280;57644;48.416;-123.374;2022-11-25T12:54:09;101875.20;;;0.84;97.68
70250;BME280;57644;48.416;-123.374;2022-11-25T12:56:42;101888.77;;;0.93;97.42
70250;BME280;57644;48.416;-123.374;2022-11-25T13:01:40;101896.99;;;1.16;97.00
70250;BME280;57644;48.416;-123.374;2022-11-25T13:09:11;101896.68;;;1.49;95.82
70250;BME280;57644;48.416;-123.374;2022-11-25T13:14:12;101901.56;;;1.63;95.59
70250;BME280;57644;48.416;-123.374;2022-11-25T13:16:38;101907.01;;;1.70;95.04
70250;BME280;57644;48.416;-123.374;2022-11-25T13:19:14;101913.79;;;1.74;94.95
70250;BME280;57644;48.416;-123.374;2022-11-25T13:21:36;101915.27;;;1.72;95.09
70250;BME280;57644;48.416;-123.374;2022-11-25T13:36:45;101921.67;;;1.49;95.35
70250;BME280;57644;48.416;-123.374;2022-11-25T13:39:13;101922.39;;;1.54;94.97
70250;BME280;57644;48.416;-123.374;2022-11-25T13:41:44;101923.07;;;1.51;95.06
70250;BME280;57644;48.416;-123.374;2022-11-25T13:44:20;101943.05;;;1.48;95.20
70250;BME280;57644;48.416;-123.374;2022-11-25T13:46:42;101951.14;;;1.53;95.00
70250;BME280;57644;48.416;-123.374;2022-11-25T13:51:47;101953.43;;;1.72;94.27
70250;BME280;57644;48.416;-123.374;2022-11-25T13:54:15;101963.23;;;1.83;93.70
70250;BME280;57644;48.416;-123.374;2022-11-25T13:56:40;101968.31;;;1.92;93.29
70250;BME280;57644;48.416;-123.374;2022-11-25T13:59:29;101971.72;;;1.97;93.06
70250;BME280;57644;48.416;-123.374;2022-11-25T14:01:53;101975.23;;;2.04;92.84
70250;BME280;57644;48.416;-123.374;2022-11-25T14:04:13;101981.30;;;2.14;92.52
70250;BME280;57644;48.416;-123.374;2022-11-25T14:06:54;101989.34;;;2.16;92.62
70250;BME280;57644;48.416;-123.374;2022-11-25T14:09:20;101989.26;;;2.22;92.29
70250;BME280;57644;48.416;-123.374;2022-11-25T14:11:56;101991.35;;;2.19;92.42
70250;BME280;57644;48.416;-123.374;2022-11-25T14:14:27;101988.03;;;2.22;92.31
70250;BME280;57644;48.416;-123.374;2022-11-25T14:16:56;101986.79;;;2.21;92.46
70250;BME280;57644;48.416;-123.374;2022-11-25T14:22:00;101994.33;;;2.06;93.09
70250;BME280;57644;48.416;-123.374;2022-11-25T14:24:26;101995.74;;;2.02;93.36
70250;BME280;57644;48.416;-123.374;2022-11-25T14:26:46;102006.07;;;1.97;93.94
70250;BME280;57644;48.416;-123.374;2022-11-25T14:29:20;102012.85;;;1.98;93.97
70250;BME280;57644;48.416;-123.374;2022-11-25T14:31:50;102018.67;;;2.04;93.65
70250;BME280;57644;48.416;-123.374;2022-11-25T14:34:22;102022.68;;;2.04;93.87
70250;BME280;57644;48.416;-123.374;2022-11-25T14:36:51;102020.52;;;2.05;94.00
70250;BME280;57644;48.416;-123.374;2022-11-25T14:39:23;102028.17;;;2.11;93.83
70250;BME280;57644;48.416;-123.374;2022-11-25T14:41:55;102025.17;;;2.17;93.70
70250;BME280;57644;48.416;-123.374;2022-11-25T14:44:24;102025.00;;;2.08;94.19
70250;BME280;57644;48.416;-123.374;2022-11-25T14:46:53;102020.32;;;1.81;94.85
70250;BME280;57644;48.416;-123.374;2022-11-25T14:49:19;102025.00;;;1.80;94.89
70250;BME280;57644;48.416;-123.374;2022-11-25T14:51:51;102029.25;;;1.54;96.06
70250;BME280;57644;48.416;-123.374;2022-11-25T14:54:22;102028.21;;;1.39;96.26
70250;BME280;57644;48.416;-123.374;2022-11-25T14:56:51;102035.29;;;1.38;96.28
70250;BME280;57644;48.416;-123.374;2022-11-25T14:59:21;102036.76;;;1.09;97.38
70250;BME280;57644;48.416;-123.374;2022-11-25T15:01:53;102044.18;;;0.97;98.05
70250;BME280;57644;48.416;-123.374;2022-11-25T15:04:23;102047.29;;;0.85;98.75
70250;BME280;57644;48.416;-123.374;2022-11-25T15:06:54;102052.28;;;0.79;98.91
70250;BME280;57644;48.416;-123.374;2022-11-25T15:09:26;102056.39;;;0.76;98.87
70250;BME280;57644;48.416;-123.374;2022-11-25T15:11:58;102061.57;;;0.94;97.24
70250;BME280;57644;48.416;-123.374;2022-11-25T15:14:27;102072.29;;;0.89;97.16
70250;BME280;57644;48.416;-123.374;2022-11-25T15:16:55;102079.48;;;1.00;97.26
70250;BME280;57644;48.416;-123.374;2022-11-25T15:19:26;102086.16;;;0.90;97.22
70250;BME280;57644;48.416;-123.374;2022-11-25T15:21:58;102087.77;;;0.96;96.52
70250;BME280;57644;48.416;-123.374;2022-11-25T15:24:27;102097.49;;;0.92;97.23
70250;BME280;57644;48.416;-123.374;2022-11-25T15:26:57;102097.85;;;0.84;96.73
70250;BME280;57644;48.416;-123.374;2022-11-25T15:29:28;102099.99;;;0.89;96.86
70250;BME280;57644;48.416;-123.374;2022-11-25T15:31:58;102104.56;;;0.95;96.75
70250;BME280;57644;48.416;-123.374;2022-11-25T15:34:29;102106.33;;;1.10;95.36
70250;BME280;57644;48.416;-123.374;2022-11-25T15:37:01;102108.22;;;1.03;95.28
70250;BME280;57644;48.416;-123.374;2022-11-25T15:39:28;102115.07;;;0.96;95.34
70250;BME280;57644;48.416;-123.374;2022-11-25T15:42:06;102122.78;;;0.86;95.21
70250;BME280;57644;48.416;-123.374;2022-11-25T15:44:32;102132.42;;;0.92;95.00
70250;BME280;57644;48.416;-123.374;2022-11-25T15:47:02;102141.63;;;0.86;95.09
70250;BME280;57644;48.416;-123.374;2022-11-25T15:49:30;102143.57;;;0.77;95.22
70250;BME280;57644;48.416;-123.374;2022-11-25T15:52:04;102151.77;;;0.82;95.00
70250;BME280;57644;48.416;-123.374;2022-11-25T15:54:32;102153.82;;;0.89;94.97
70250;BME280;57644;48.416;-123.374;2022-11-25T15:57:15;102157.61;;;0.87;95.75
70250;BME280;57644;48.416;-123.374;2022-11-25T15:59:37;102159.05;;;0.82;97.11
70250;BME280;57644;48.416;-123.374;2022-11-25T16:09:53;102172.28;;;0.27;100.00
70250;BME280;57644;48.416;-123.374;2022-11-25T16:22:22;102181.78;;;0.47;98.13
70250;BME280;57644;48.416;-123.374;2022-11-25T16:27:15;102175.09;;;0.39;98.29
70250;BME280;57644;48.416;-123.374;2022-11-25T16:32:16;102169.86;;;0.36;95.89
70250;BME280;57644;48.416;-123.374;2022-11-25T16:34:59;102178.91;;;0.47;93.89
70250;BME280;57644;48.416;-123.374;2022-11-25T16:37:16;102181.07;;;0.52;93.08
70250;BME280;57644;48.416;-123.374;2022-11-25T16:39:39;102186.41;;;0.58;91.92
70250;BME280;57644;48.416;-123.374;2022-11-25T16:42:17;102184.55;;;0.57;92.10
70250;BME280;57644;48.416;-123.374;2022-11-25T16:44:40;102193.36;;;0.36;92.82
70250;BME280;57644;48.416;-123.374;2022-11-25T16:47:10;102196.53;;;0.41;92.41
70250;BME280;57644;48.416;-123.374;2022-11-25T16:49:41;102206.34;;;0.31;92.42
70250;BME280;57644;48.416;-123.374;2022-11-25T16:52:12;102218.87;;;0.22;92.82